sensor_id;sensor_type;location;lat;lon;timestamp;pressure;altitude;pressure_sealevel;temperature;humidity
13836;BME280;6988;52.614;13.500;2022-08-07T00:01:11;53913.25;;;-143.77;58.35
13836;BME280;6988;52.614;13.500;2022-08-07T00:06:03;53921.47;;;-143.77;58.88
13836;BME280;6988;52.614;13.500;2022-08-07T00:10:57;53909.16;;;-143.77;59.36
13836;BME280;6988;52.614;13.500;2022-08-07T00:15:50;53900.94;;;-143.77;59.74
13836;BME280;6988;52.614;13.500;2022-08-07T00:20:42;53921.47;;;-143.77;59.81
13836;BME280;6988;52.614;13.500;2022-08-07T00:25:35;53917.38;;;-143.77;59.99
13836;BME280;6988;52.614;13.500;2022-08-07T00:30:28;53868.13;;;-143.77;60.17
13836;BME280;6988;52.614;13.500;2022-08-07T00:35:21;53921.47;;;-143.77;59.85
13836;BME280;6988;52.614;13.500;2022-08-07T00:40:13;53946.09;;;-143.77;58.78
13836;BME280;6988;52.614;13.500;2022-08-07T00:45:08;53921.47;;;-143.77;58.93
13836;BME280;6988;52.614;13.500;2022-08-07T00:50:03;53927.63;;;-143.77;59.48
13836;BME280;6988;52.614;13.500;2022-08-07T00:54:55;53937.88;;;-143.77;60.77
13836;BME280;6988;52.614;13.500;2022-08-07T00:59:46;53933.78;;;-143.77;60.99
13836;BME280;6988;52.614;13.500;2022-08-07T01:04:38;53958.41;;;-143.77;61.32
13836;BME280;6988;52.614;13.500;2022-08-07T01:09:32;53958.41;;;-143.77;61.76
13836;BME280;6988;52.614;13.500;2022-08-07T01:14:24;53929.69;;;-143.77;61.54
13836;BME280;6988;52.614;13.500;2022-08-07T01:19:19;53966.59;;;-143.77;61.66
13836;BME280;6988;52.614;13.500;2022-08-07T01:24:18;53954.28;;;-143.77;61.56
13836;BME280;6988;52.614;13.500;2022-08-07T01:29:10;53966.59;;;-143.77;61.50
13836;BME280;6988;52.614;13.500;2022-08-07T01:34:03;53915.31;;;-143.77;61.47
13836;BME280;6988;52.614;13.500;2022-08-07T01:39:04;53970.72;;;-143.77;61.75
13836;BME280;6988;52.614;13.500;2022-08-07T01:43:58;53997.38;;;-143.77;62.34
13836;BME280;6988;52.614;13.500;2022-08-07T01:48:51;53991.22;;;-143.77;62.53
13836;BME280;6988;52.614;13.500;2022-08-07T01:53:51;53997.38;;;-143.77;62.57
13836;BME280;6988;52.614;13.500;2022-08-07T01:58:51;53993.28;;;-143.77;62.93
13836;BME280;6988;52.614;13.500;2022-08-07T02:03:53;53972.75;;;-143.77;63.17
13836;BME280;6988;52.614;13.500;2022-08-07T02:08:49;54003.53;;;-143.77;63.26
13836;BME280;6988;52.614;13.500;2022-08-07T02:13:44;53991.22;;;-143.77;62.66
13836;BME280;6988;52.614;13.500;2022-08-07T02:18:41;53993.28;;;-143.77;62.80
13836;BME280;6988;52.614;13.500;2022-08-07T02:23:38;53966.59;;;-143.77;63.03
13836;BME280;6988;52.614;13.500;2022-08-07T02:28:33;53983.00;;;-143.77;63.11
13836;BME280;6988;52.614;13.500;2022-08-07T02:33:30;53999.44;;;-143.77;63.14
13836;BME280;6988;52.614;13.500;2022-08-07T02:38:27;54026.09;;;-143.77;63.38
13836;BME280;6988;52.614;13.500;2022-08-07T02:43:23;54026.09;;;-143.77;63.64
13836;BME280;6988;52.614;13.500;2022-08-07T02:48:15;54026.09;;;-143.77;63.78
13836;BME280;6988;52.614;13.500;2022-08-07T02:53:15;54001.47;;;-143.77;63.47
13836;BME280;6988;52.614;13.500;2022-08-07T02:58:13;54028.16;;;-143.77;63.54
13836;BME280;6988;52.614;13.500;2022-08-07T03:03:09;53999.44;;;-143.77;63.63
13836;BME280;6988;52.614;13.500;2022-08-07T03:08:06;54024.06;;;-143.77;63.85
13836;BME280;6988;52.614;13.500;2022-08-07T03:13:01;54024.06;;;-143.77;64.03
13836;BME280;6988;52.614;13.500;2022-08-07T03:17:54;54024.06;;;-143.77;64.26
13836;BME280;6988;52.614;13.500;2022-08-07T03:22:52;54034.31;;;-143.77;64.37
13836;BME280;6988;52.614;13.500;2022-08-07T03:27:47;54009.69;;;-143.77;64.51
13836;BME280;6988;52.614;13.500;2022-08-07T03:32:42;54007.63;;;-143.77;64.52
13836;BME280;6988;52.614;13.500;2022-08-07T03:37:39;54089.72;;;-143.77;64.66
13836;BME280;6988;52.614;13.500;2022-08-07T03:42:35;54024.06;;;-143.77;64.89
13836;BME280;6988;52.614;13.500;2022-08-07T03:47:30;54042.50;;;-143.77;64.86
13836;BME280;6988;52.614;13.500;2022-08-07T03:52:27;54019.94;;;-143.77;65.27
13836;BME280;6988;52.614;13.500;2022-08-07T03:57:25;54063.03;;;-143.77;65.59
13836;BME280;6988;52.614;13.500;2022-08-07T04:02:19;54022.00;;;-143.77;65.53
13836;BME280;6988;52.614;13.500;2022-08-07T04:07:15;54036.38;;;-143.77;65.73
13836;BME280;6988;52.614;13.500;2022-08-07T04:12:13;54060.97;;;-143.77;65.86
13836;BME280;6988;52.614;13.500;2022-08-07T04:17:07;54030.22;;;-143.77;65.97
13836;BME280;6988;52.614;13.500;2022-08-07T04:22:02;54032.25;;;-143.77;66.38
13836;BME280;6988;52.614;13.500;2022-08-07T04:26:58;54060.97;;;-143.77;66.15
13836;BME280;6988;52.614;13.500;2022-08-07T04:31:52;54011.75;;;-143.77;66.90
13836;BME280;6988;52.614;13.500;2022-08-07T04:36:45;54060.97;;;-143.77;67.56
13836;BME280;6988;52.614;13.500;2022-08-07T04:41:38;54032.25;;;-143.77;67.07
13836;BME280;6988;52.614;13.500;2022-08-07T04:46:39;54040.47;;;-143.77;67.54
13836;BME280;6988;52.614;13.500;2022-08-07T04:51:42;54038.41;;;-143.77;67.10
13836;BME280;6988;52.614;13.500;2022-08-07T04:56:45;54001.47;;;-143.77;67.80
13836;BME280;6988;52.614;13.500;2022-08-07T05:01:44;53985.06;;;-143.77;67.55
13836;BME280;6988;52.614;13.500;2022-08-07T05:06:48;53976.88;;;-143.77;67.36
13836;BME280;6988;52.614;13.500;2022-08-07T05:11:49;53970.72;;;-143.77;67.85
13836;BME280;6988;52.614;13.500;2022-08-07T05:16:44;53987.13;;;-143.77;67.69
13836;BME280;6988;52.614;13.500;2022-08-07T05:21:46;54019.94;;;-143.77;66.83
13836;BME280;6988;52.614;13.500;2022-08-07T05:26:40;53999.44;;;-143.77;66.89
13836;BME280;6988;52.614;13.500;2022-08-07T05:31:39;53968.66;;;-143.77;66.16
13836;BME280;6988;52.614;13.500;2022-08-07T05:36:38;53978.91;;;-143.77;65.97
13836;BME280;6988;52.614;13.500;2022-08-07T05:41:38;53937.88;;;-143.77;65.71
13836;BME280;6988;52.614;13.500;2022-08-07T05:46:36;53944.03;;;-143.77;65.01
13836;BME280;6988;52.614;13.500;2022-08-07T05:51:29;53923.53;;;-143.77;63.67
13836;BME280;6988;52.614;13.500;2022-08-07T05:56:21;53923.53;;;-143.77;63.28
13836;BME280;6988;52.614;13.500;2022-08-07T06:01:17;53872.22;;;-143.77;60.01
13836;BME280;6988;52.614;13.500;2022-08-07T06:06:14;53849.66;;;-143.77;57.45
13836;BME280;6988;52.614;13.500;2022-08-07T06:11:07;53843.50;;;-143.77;56.06
13836;BME280;6988;52.614;13.500;2022-08-07T06:16:02;53829.16;;;-143.77;54.62
13836;BME280;6988;52.614;13.500;2022-08-07T06:20:54;53781.97;;;-143.77;52.42
13836;BME280;6988;52.614;13.500;2022-08-07T06:25:48;53771.69;;;-143.77;50.95
13836;BME280;6988;52.614;13.500;2022-08-07T06:30:40;53718.34;;;-143.77;48.01
13836;BME280;6988;52.614;13.500;2022-08-07T06:35:37;53695.78;;;-143.77;47.08
13836;BME280;6988;52.614;13.500;2022-08-07T06:40:34;53644.50;;;-143.77;46.41
13836;BME280;6988;52.614;13.500;2022-08-07T06:45:29;53589.13;;;-143.77;45.51
13836;BME280;6988;52.614;13.500;2022-08-07T06:50:26;53535.78;;;-143.77;44.81
13836;BME280;6988;52.614;13.500;2022-08-07T06:55:22;53492.69;;;-143.77;43.34
13836;BME280;6988;52.614;13.500;2022-08-07T07:00:16;53507.06;;;-143.77;43.54
13836;BME280;6988;52.614;13.500;2022-08-07T07:05:12;53472.19;;;-143.77;42.07
13836;BME280;6988;52.614;13.500;2022-08-07T07:10:05;53431.16;;;-143.77;41.63
13836;BME280;6988;52.614;13.500;2022-08-07T07:15:02;53425.00;;;-143.77;40.99
13836;BME280;6988;52.614;13.500;2022-08-07T07:19:59;53404.50;;;-143.77;41.07
13836;BME280;6988;52.614;13.500;2022-08-07T07:24:55;53371.66;;;-143.77;40.06
13836;BME280;6988;52.614;13.500;2022-08-07T07:29:53;53347.06;;;-143.77;39.29
13836;BME280;6988;52.614;13.500;2022-08-07T07:34:51;53357.31;;;-143.77;39.92
13836;BME280;6988;52.614;13.500;2022-08-07T07:39:45;53322.44;;;-143.77;38.67
13836;BME280;6988;52.614;13.500;2022-08-07T07:44:44;53277.31;;;-143.77;38.15
13836;BME280;6988;52.614;13.500;2022-08-07T07:49:38;53345.00;;;-143.77;38.50
13836;BME280;6988;52.614;13.500;2022-08-07T07:54:32;53267.06;;;-143.77;38.21
13836;BME280;6988;52.614;13.500;2022-08-07T07:59:26;53230.13;;;-143.77;37.19
13836;BME280;6988;52.614;13.500;2022-08-07T08:04:21;53223.97;;;-143.77;37.40
13836;BME280;6988;52.614;13.500;2022-08-07T08:09:17;53185.00;;;-143.77;36.43
13836;BME280;6988;52.614;13.500;2022-08-07T08:14:10;53152.19;;;-143.77;35.86
13836;BME280;6988;52.614;13.500;2022-08-07T08:19:04;53174.75;;;-143.77;35.42
13836;BME280;6988;52.614;13.500;2022-08-07T08:24:00;53162.44;;;-143.77;35.34
13836;BME280;6988;52.614;13.500;2022-08-07T08:29:14;53129.63;;;-143.77;35.22
13836;BME280;6988;52.614;13.500;2022-08-07T08:34:09;53107.06;;;-143.77;34.56
13836;BME280;6988;52.614;13.500;2022-08-07T08:39:04;53121.41;;;-143.77;34.64
13836;BME280;6988;52.614;13.500;2022-08-07T08:44:07;53141.91;;;-143.77;34.53
13836;BME280;6988;52.614;13.500;2022-08-07T08:49:17;53086.53;;;-143.77;34.34
13836;BME280;6988;52.614;13.500;2022-08-07T08:54:28;53039.38;;;-143.77;33.89
13836;BME280;6988;52.614;13.500;2022-08-07T08:59:28;53031.16;;;-143.77;32.98
13836;BME280;6988;52.614;13.500;2022-08-07T09:04:35;52986.03;;;-143.77;32.94
13836;BME280;6988;52.614;13.500;2022-08-07T09:09:52;52940.91;;;-143.77;32.90
13836;BME280;6988;52.614;13.500;2022-08-07T09:15:02;52932.69;;;-143.77;32.43
13836;BME280;6988;52.614;13.500;2022-08-07T09:20:00;52940.91;;;-143.77;33.08
13836;BME280;6988;52.614;13.500;2022-08-07T09:25:06;53113.22;;;-143.77;32.87
13836;BME280;6988;52.614;13.500;2022-08-07T09:30:05;53123.47;;;-143.77;32.79
13836;BME280;6988;52.614;13.500;2022-08-07T09:35:10;53236.28;;;-143.77;33.82
13836;BME280;6988;52.614;13.500;2022-08-07T09:40:18;53306.03;;;-143.77;34.70
13836;BME280;6988;52.614;13.500;2022-08-07T09:45:31;53265.00;;;-143.77;35.02
13836;BME280;6988;52.614;13.500;2022-08-07T09:50:51;53297.81;;;-143.77;34.90
13836;BME280;6988;52.614;13.500;2022-08-07T09:56:20;53000.38;;;-143.77;34.46
13836;BME280;6988;52.614;13.500;2022-08-07T10:01:47;52916.28;;;-143.77;32.69
13836;BME280;6988;52.614;13.500;2022-08-07T10:06:59;52895.78;;;-143.77;32.30
13836;BME280;6988;52.614;13.500;2022-08-07T10:12:13;52821.94;;;-143.77;32.37
13836;BME280;6988;52.614;13.500;2022-08-07T10:17:25;52780.91;;;-143.77;31.35
13836;BME280;6988;52.614;13.500;2022-08-07T10:22:48;52983.97;;;-143.77;30.76
13836;BME280;6988;52.614;13.500;2022-08-07T10:28:13;53039.38;;;-143.77;31.00
13836;BME280;6988;52.614;13.500;2022-08-07T10:33:37;53076.28;;;-143.77;31.41
13836;BME280;6988;52.614;13.500;2022-08-07T10:38:46;53121.41;;;-143.77;32.22
13836;BME280;6988;52.614;13.500;2022-08-07T10:43:51;53152.19;;;-143.77;32.67
13836;BME280;6988;52.614;13.500;2022-08-07T10:48:56;53135.78;;;-143.77;33.52
13836;BME280;6988;52.614;13.500;2022-08-07T10:54:04;53178.84;;;-143.77;33.62
13836;BME280;6988;52.614;13.500;2022-08-07T10:59:15;53207.56;;;-143.77;33.56
13836;BME280;6988;52.614;13.500;2022-08-07T11:04:23;53109.09;;;-143.77;33.06
13836;BME280;6988;52.614;13.500;2022-08-07T11:09:25;53141.91;;;-143.77;33.13
13836;BME280;6988;52.614;13.500;2022-08-07T11:14:27;52979.88;;;-143.77;32.63
13836;BME280;6988;52.614;13.500;2022-08-07T11:19:35;53162.44;;;-143.77;32.74
13836;BME280;6988;52.614;13.500;2022-08-07T11:24:38;53158.34;;;-143.77;32.61
13836;BME280;6988;52.614;13.500;2022-08-07T11:29:42;53174.75;;;-143.77;33.59
13836;BME280;6988;52.614;13.500;2022-08-07T11:34:42;53176.78;;;-143.77;33.63
13836;BME280;6988;52.614;13.500;2022-08-07T11:39:55;53199.34;;;-143.77;33.82
13836;BME280;6988;52.614;13.500;2022-08-07T11:44:59;52895.78;;;-143.77;32.38
13836;BME280;6988;52.614;13.500;2022-08-07T11:50:27;52879.38;;;-143.77;32.10
13836;BME280;6988;52.614;13.500;2022-08-07T11:55:44;52789.13;;;-143.77;30.49
13836;BME280;6988;52.614;13.500;2022-08-07T12:00:57;52826.03;;;-143.77;30.10
13836;BME280;6988;52.614;13.500;2022-08-07T12:06:11;52973.72;;;-143.77;29.76
13836;BME280;6988;52.614;13.500;2022-08-07T12:11:19;53043.47;;;-143.77;31.40
13836;BME280;6988;52.614;13.500;2022-08-07T12:16:20;53084.50;;;-143.77;31.69
13836;BME280;6988;52.614;13.500;2022-08-07T12:21:27;53098.84;;;-143.77;31.39
13836;BME280;6988;52.614;13.500;2022-08-07T12:26:30;53135.78;;;-143.77;31.88
13836;BME280;6988;52.614;13.500;2022-08-07T12:31:34;53162.44;;;-143.77;32.86
13836;BME280;6988;52.614;13.500;2022-08-07T12:36:28;53162.44;;;-143.77;32.84
13836;BME280;6988;52.614;13.500;2022-08-07T12:41:23;53185.00;;;-143.77;32.35
13836;BME280;6988;52.614;13.500;2022-08-07T12:46:34;53205.50;;;-143.77;32.26
13836;BME280;6988;52.614;13.500;2022-08-07T12:51:40;53191.16;;;-143.77;32.83
13836;BME280;6988;52.614;13.500;2022-08-07T12:56:36;53236.28;;;-143.77;32.60
13836;BME280;6988;52.614;13.500;2022-08-07T13:01:44;53232.19;;;-143.77;32.14
13836;BME280;6988;52.614;13.500;2022-08-07T13:07:05;53219.88;;;-143.77;33.43
13836;BME280;6988;52.614;13.500;2022-08-07T13:12:18;53172.69;;;-143.77;33.34
13836;BME280;6988;52.614;13.500;2022-08-07T13:17:23;53195.25;;;-143.77;33.45
13836;BME280;6988;52.614;13.500;2022-08-07T13:22:25;53246.53;;;-143.77;32.88
13836;BME280;6988;52.614;13.500;2022-08-07T13:27:26;53217.81;;;-143.77;32.51
13836;BME280;6988;52.614;13.500;2022-08-07T13:32:29;53258.84;;;-143.77;33.17
13836;BME280;6988;52.614;13.500;2022-08-07T13:37:30;53260.91;;;-143.77;33.57
13836;BME280;6988;52.614;13.500;2022-08-07T13:42:24;53260.91;;;-143.77;34.13
13836;BME280;6988;52.614;13.500;2022-08-07T13:47:21;53301.91;;;-143.77;33.46
13836;BME280;6988;52.614;13.500;2022-08-07T13:52:18;53299.88;;;-143.77;34.27
13836;BME280;6988;52.614;13.500;2022-08-07T13:57:14;53281.41;;;-143.77;34.90
13836;BME280;6988;52.614;13.500;2022-08-07T14:02:10;53293.72;;;-143.77;33.87
13836;BME280;6988;52.614;13.500;2022-08-07T14:07:08;53219.88;;;-143.77;33.05
13836;BME280;6988;52.614;13.500;2022-08-07T14:12:05;53269.09;;;-143.77;34.14
13836;BME280;6988;52.614;13.500;2022-08-07T14:17:02;53182.94;;;-143.77;32.92
13836;BME280;6988;52.614;13.500;2022-08-07T14:21:56;53152.19;;;-143.77;32.69
13836;BME280;6988;52.614;13.500;2022-08-07T14:26:54;53113.22;;;-143.77;31.57
13836;BME280;6988;52.614;13.500;2022-08-07T14:31:48;53156.28;;;-143.77;31.32
13836;BME280;6988;52.614;13.500;2022-08-07T14:36:41;53115.25;;;-143.77;31.13
13836;BME280;6988;52.614;13.500;2022-08-07T14:41:35;53076.28;;;-143.77;30.94
13836;BME280;6988;52.614;13.500;2022-08-07T14:46:30;53072.19;;;-143.77;30.77
13836;BME280;6988;52.614;13.500;2022-08-07T14:51:26;53039.38;;;-143.77;30.24
13836;BME280;6988;52.614;13.500;2022-08-07T14:56:21;53025.00;;;-143.77;30.73
13836;BME280;6988;52.614;13.500;2022-08-07T15:01:15;53027.06;;;-143.77;30.62
13836;BME280;6988;52.614;13.500;2022-08-07T15:06:09;53018.84;;;-143.77;30.46
13836;BME280;6988;52.614;13.500;2022-08-07T15:11:08;53053.72;;;-143.77;30.79
13836;BME280;6988;52.614;13.500;2022-08-07T15:16:05;53100.91;;;-143.77;31.09
13836;BME280;6988;52.614;13.500;2022-08-07T15:20:59;53105.00;;;-143.77;31.63
13836;BME280;6988;52.614;13.500;2022-08-07T15:25:56;53117.31;;;-143.77;31.50
13836;BME280;6988;52.614;13.500;2022-08-07T15:30:50;53078.34;;;-143.77;31.47
13836;BME280;6988;52.614;13.500;2022-08-07T15:35:48;53055.78;;;-143.77;30.18
13836;BME280;6988;52.614;13.500;2022-08-07T15:40:46;53082.44;;;-143.77;31.32
13836;BME280;6988;52.614;13.500;2022-08-07T15:45:41;53092.69;;;-143.77;31.41
13836;BME280;6988;52.614;13.500;2022-08-07T15:50:37;53113.22;;;-143.77;31.72
13836;BME280;6988;52.614;13.500;2022-08-07T15:55:32;53133.72;;;-143.77;31.86
13836;BME280;6988;52.614;13.500;2022-08-07T16:00:31;53080.38;;;-143.77;32.14
13836;BME280;6988;52.614;13.500;2022-08-07T16:05:26;53088.59;;;-143.77;31.87
13836;BME280;6988;52.614;13.500;2022-08-07T16:10:24;53088.59;;;-143.77;30.99
13836;BME280;6988;52.614;13.500;2022-08-07T16:15:33;53084.50;;;-143.77;31.86
13836;BME280;6988;52.614;13.500;2022-08-07T16:20:44;53135.78;;;-143.77;31.94
13836;BME280;6988;52.614;13.500;2022-08-07T16:25:52;53137.81;;;-143.77;32.02
13836;BME280;6988;52.614;13.500;2022-08-07T16:30:54;53189.09;;;-143.77;32.09
13836;BME280;6988;52.614;13.500;2022-08-07T16:36:17;53172.69;;;-143.77;32.06
13836;BME280;6988;52.614;13.500;2022-08-07T16:41:27;53211.66;;;-143.77;32.70
13836;BME280;6988;52.614;13.500;2022-08-07T16:46:45;53219.88;;;-143.77;33.07
13836;BME280;6988;52.614;13.500;2022-08-07T16:51:50;53223.97;;;-143.77;33.75
13836;BME280;6988;52.614;13.500;2022-08-07T16:57:04;53244.50;;;-143.77;33.61
13836;BME280;6988;52.614;13.500;2022-08-07T17:02:04;53252.69;;;-143.77;34.32
13836;BME280;6988;52.614;13.500;2022-08-07T17:07:20;53273.19;;;-143.77;33.84
13836;BME280;6988;52.614;13.500;2022-08-07T17:12:19;53267.06;;;-143.77;34.25
13836;BME280;6988;52.614;13.500;2022-08-07T17:17:36;53287.56;;;-143.77;34.54
13836;BME280;6988;52.614;13.500;2022-08-07T17:22:36;53310.13;;;-143.77;34.65
13836;BME280;6988;52.614;13.500;2022-08-07T17:27:44;53314.22;;;-143.77;35.17
13836;BME280;6988;52.614;13.500;2022-08-07T17:32:51;53293.72;;;-143.77;35.58
13836;BME280;6988;52.614;13.500;2022-08-07T17:37:58;53326.53;;;-143.77;35.95
13836;BME280;6988;52.614;13.500;2022-08-07T17:43:01;53324.50;;;-143.77;36.26
13836;BME280;6988;52.614;13.500;2022-08-07T17:48:02;53345.00;;;-143.77;36.38
13836;BME280;6988;52.614;13.500;2022-08-07T17:53:04;53355.25;;;-143.77;36.62
13836;BME280;6988;52.614;13.500;2022-08-07T17:58:03;53363.47;;;-143.77;37.05
13836;BME280;6988;52.614;13.500;2022-08-07T18:03:05;53383.97;;;-143.77;37.41
13836;BME280;6988;52.614;13.500;2022-08-07T18:08:13;53396.28;;;-143.77;37.43
13836;BME280;6988;52.614;13.500;2022-08-07T18:13:16;53410.66;;;-143.77;38.21
13836;BME280;6988;52.614;13.500;2022-08-07T18:18:13;53392.19;;;-143.77;38.58
13836;BME280;6988;52.614;13.500;2022-08-07T18:23:13;53420.91;;;-143.77;38.31
13836;BME280;6988;52.614;13.500;2022-08-07T18:28:15;53445.50;;;-143.77;38.38
13836;BME280;6988;52.614;13.500;2022-08-07T18:33:36;53441.41;;;-143.77;39.56
13836;BME280;6988;52.614;13.500;2022-08-07T18:38:50;53427.06;;;-143.77;40.02
13836;BME280;6988;52.614;13.500;2022-08-07T18:43:53;53443.47;;;-143.77;40.40
13836;BME280;6988;52.614;13.500;2022-08-07T18:48:59;53459.88;;;-143.77;40.61
13836;BME280;6988;52.614;13.500;2022-08-07T18:54:19;53439.38;;;-143.77;40.80
13836;BME280;6988;52.614;13.500;2022-08-07T18:59:27;53484.50;;;-143.77;41.10
13836;BME280;6988;52.614;13.500;2022-08-07T19:04:33;53486.53;;;-143.77;41.29
13836;BME280;6988;52.614;13.500;2022-08-07T19:09:34;53502.97;;;-143.77;41.61
13836;BME280;6988;52.614;13.500;2022-08-07T19:15:00;53513.22;;;-143.77;42.14
13836;BME280;6988;52.614;13.500;2022-08-07T19:20:01;53517.31;;;-143.77;42.13
13836;BME280;6988;52.614;13.500;2022-08-07T19:24:55;53531.69;;;-143.77;42.33
13836;BME280;6988;52.614;13.500;2022-08-07T19:29:54;53517.31;;;-143.77;42.29
13836;BME280;6988;52.614;13.500;2022-08-07T19:34:51;53550.13;;;-143.77;42.78
13836;BME280;6988;52.614;13.500;2022-08-07T19:39:50;53527.56;;;-143.77;43.07
13836;BME280;6988;52.614;13.500;2022-08-07T19:44:45;53564.50;;;-143.77;43.27
13836;BME280;6988;52.614;13.500;2022-08-07T19:49:43;53550.13;;;-143.77;43.52
13836;BME280;6988;52.614;13.500;2022-08-07T19:54:41;53525.53;;;-143.77;43.57
13836;BME280;6988;52.614;13.500;2022-08-07T19:59:35;53568.59;;;-143.77;43.77
13836;BME280;6988;52.614;13.500;2022-08-07T20:04:33;53548.09;;;-143.77;43.64
13836;BME280;6988;52.614;13.500;2022-08-07T20:09:30;53566.56;;;-143.77;44.14
13836;BME280;6988;52.614;13.500;2022-08-07T20:14:30;53593.22;;;-143.77;44.47
13836;BME280;6988;52.614;13.500;2022-08-07T20:19:27;53601.44;;;-143.77;44.51
13836;BME280;6988;52.614;13.500;2022-08-07T20:24:23;53556.28;;;-143.77;43.96
13836;BME280;6988;52.614;13.500;2022-08-07T20:29:21;53597.31;;;-143.77;44.21
13836;BME280;6988;52.614;13.500;2022-08-07T20:34:15;53599.38;;;-143.77;44.79
13836;BME280;6988;52.614;13.500;2022-08-07T20:39:12;53619.88;;;-143.77;45.57
13836;BME280;6988;52.614;13.500;2022-08-07T20:44:11;53601.44;;;-143.77;45.58
13836;BME280;6988;52.614;13.500;2022-08-07T20:49:06;53597.31;;;-143.77;45.79
13836;BME280;6988;52.614;13.500;2022-08-07T20:54:03;53636.31;;;-143.77;46.58
13836;BME280;6988;52.614;13.500;2022-08-07T20:59:02;53656.81;;;-143.77;46.60
13836;BME280;6988;52.614;13.500;2022-08-07T21:03:59;53658.88;;;-143.77;46.31
13836;BME280;6988;52.614;13.500;2022-08-07T21:08:56;53679.38;;;-143.77;47.02
13836;BME280;6988;52.614;13.500;2022-08-07T21:13:53;53662.97;;;-143.77;47.47
13836;BME280;6988;52.614;13.500;2022-08-07T21:18:48;53654.75;;;-143.77;45.68
13836;BME280;6988;52.614;13.500;2022-08-07T21:23:55;53662.97;;;-143.77;46.58
13836;BME280;6988;52.614;13.500;2022-08-07T21:28:53;53712.22;;;-143.77;47.66
13836;BME280;6988;52.614;13.500;2022-08-07T21:33:52;53671.19;;;-143.77;48.24
13836;BME280;6988;52.614;13.500;2022-08-07T21:39:00;53685.53;;;-143.77;48.64
13836;BME280;6988;52.614;13.500;2022-08-07T21:44:02;53732.72;;;-143.77;48.85
13836;BME280;6988;52.614;13.500;2022-08-07T21:49:05;53658.88;;;-143.77;49.00
13836;BME280;6988;52.614;13.500;2022-08-07T21:54:15;53699.91;;;-143.77;49.42
13836;BME280;6988;52.614;13.500;2022-08-07T21:59:31;53708.09;;;-143.77;50.10
13836;BME280;6988;52.614;13.500;2022-08-07T22:04:27;53687.59;;;-143.77;49.94
13836;BME280;6988;52.614;13.500;2022-08-07T22:09:29;53712.22;;;-143.77;50.41
13836;BME280;6988;52.614;13.500;2022-08-07T22:14:22;53706.06;;;-143.77;50.54
13836;BME280;6988;52.614;13.500;2022-08-07T22:19:26;53704.00;;;-143.77;49.31
13836;BME280;6988;52.614;13.500;2022-08-07T22:24:28;53720.41;;;-143.77;50.52
13836;BME280;6988;52.614;13.500;2022-08-07T22:29:30;53726.56;;;-143.77;51.25
13836;BME280;6988;52.614;13.500;2022-08-07T22:34:31;53757.34;;;-143.77;51.43
13836;BME280;6988;52.614;13.500;2022-08-07T22:39:36;53742.97;;;-143.77;51.98
13836;BME280;6988;52.614;13.500;2022-08-07T22:44:32;53740.94;;;-143.77;52.18
13836;BME280;6988;52.614;13.500;2022-08-07T22:50:05;53745.03;;;-143.77;52.58
13836;BME280;6988;52.614;13.500;2022-08-07T22:55:40;53730.66;;;-143.77;52.76
13836;BME280;6988;52.614;13.500;2022-08-07T23:00:41;53749.13;;;-143.77;52.69
13836;BME280;6988;52.614;13.500;2022-08-07T23:06:03;53740.94;;;-143.77;52.68
13836;BME280;6988;52.614;13.500;2022-08-07T23:11:16;53742.97;;;-143.77;52.32
13836;BME280;6988;52.614;13.500;2022-08-07T23:16:32;53769.66;;;-143.77;52.58
13836;BME280;6988;52.614;13.500;2022-08-07T23:21:42;53749.13;;;-143.77;52.96
13836;BME280;6988;52.614;13.500;2022-08-07T23:27:01;53794.28;;;-143.77;53.48
13836;BME280;6988;52.614;13.500;2022-08-07T23:32:08;53777.84;;;-143.77;53.77
13836;BME280;6988;52.614;13.500;2022-08-07T23:37:28;53779.91;;;-143.77;53.96
13836;BME280;6988;52.614;13.500;2022-08-07T23:42:48;53765.53;;;-143.77;54.02
13836;BME280;6988;52.614;13.500;2022-08-07T23:48:05;53771.69;;;-143.77;54.19
13836;BME280;6988;52.614;13.500;2022-08-07T23:53:17;53820.94;;;-143.77;54.20
13836;BME280;6988;52.614;13.500;2022-08-07T23:58:32;53786.06;;;-143.77;54.20
